Weather at Sky Court Airport / Snell Airport [CLOSED]

Public forecast

Using degrees Fahrenheit for public forecast. Weather courtesy of forecast.io.

Closest aviation weather report (METAR) to Sky Court Airport / Snell Airport

Closest report is Albuquerque International Sunport, 5.2 nm (9.7 km) SSW.

2024/07/18 16:52 (retrieved 47 minutes ago)

KABQ 181652Z 00000KT 10SM FEW050 BKN250 25/13 A3034 RMK AO2 SLP192 T02500133

Closest aviation forecast (TAF) to Sky Court Airport / Snell Airport

Closest forecast is Albuquerque International Sunport, 5.2 nm (9.7 km) SSW.

2024/07/18 12:45 (retrieved 5 hours ago)

TAF KABQ 181143Z 1812/1912 VRB06KT P6SM SCT120 FM182300 09015G23KT P6SM VCSH BKN090 PROB30 1901/1905 VRB18G31KT 6SM -TSRA BKN070CB FM190600 13006KT P6SM VCSH BKN080